Terminal Aerodrome Forecast
Issued by NWS

Current Version | Previous Version | Text Only | Print | Product List | Glossary On
Versions: 1 2 3 4 5 6 7 8 9 10 11 12 13 14 15 16 17 18 19 20 21 22 23 24 25 26 27 28 29 30 31
000
FTUS41 KCTP 280923 AAC
TAFLNS
TAF AMD
KLNS 280923Z 2809/2906 00000KT 3SM BR BKN004 OVC008
     FM281200 01003KT 2SM BR BKN015 OVC050
     FM281400 08005KT P6SM BKN050
     FM281900 09005KT P6SM -RA OVC025=

USA.gov is the U.S. government's official web portal to all federal, state and local government web resources and services.